Terminal Aerodrome Forecast
Issued by NWS

Home | Current Version | Previous Version | Text Only | Print | Product List | Glossary On
Versions: 1 2 3 4 5 6 7 8 9 10 11 12 13 14 15 16 17
906
FTUS43 KIND 210520
TAFHUF
TAF
KHUF 210520Z 2106/2206 18006KT 1/2SM -DZ FG OVC003 WS020/23040KT
     FM210900 17006KT 2SM -DZ BR VCSH OVC008 WS020/23040KT
     FM211200 17007KT 1/2SM -DZ FG VCSH OVC003 WS020/23040KT
     FM211700 18007KT 1SM -DZ BR VCSH OVC003 WS020/23035KT
     FM220000 17008KT 1 1/2SM -SHRA OVC003
     FM220300 17008KT 2SM -SHRA OVC003 WS020/20035KT=

USA.gov is the U.S. government's official web portal to all federal, state and local government web resources and services.